createdAt,value
2019-02-11T00:00:09.898Z,984.15
2019-02-11T00:01:09.895Z,984.17
2019-02-11T00:02:09.889Z,984.13
2019-02-11T00:03:09.862Z,984.23
2019-02-11T00:04:09.847Z,984.21
2019-02-11T00:05:09.855Z,984.29
2019-02-11T00:06:09.857Z,984.28
2019-02-11T00:07:09.863Z,984.21
2019-02-11T00:08:09.814Z,984.27
2019-02-11T00:09:09.800Z,984.30
2019-02-11T00:10:09.784Z,984.31
2019-02-11T00:11:09.781Z,984.28
2019-02-11T00:12:09.772Z,984.38
2019-02-11T00:13:10.921Z,984.44
2019-02-11T00:14:09.742Z,984.46
2019-02-11T00:15:09.733Z,984.43
2019-02-11T00:16:09.715Z,984.53
2019-02-11T00:17:09.712Z,984.43
2019-02-11T00:18:09.708Z,984.49
2019-02-11T00:19:11.028Z,984.63
2019-02-11T00:20:09.690Z,984.63
2019-02-11T00:21:09.681Z,984.62
2019-02-11T00:22:09.655Z,984.67
2019-02-11T00:23:09.651Z,984.77
2019-02-11T00:24:09.652Z,984.73
2019-02-11T00:25:09.621Z,984.72
2019-02-11T00:26:09.619Z,984.74
2019-02-11T00:27:09.608Z,984.75
2019-02-11T00:28:09.622Z,984.79
2019-02-11T00:29:09.590Z,984.78
2019-02-11T00:30:09.577Z,984.82
2019-02-11T00:31:09.634Z,984.81
2019-02-11T00:32:09.562Z,984.87
2019-02-11T00:33:09.572Z,984.82
2019-02-11T00:34:09.526Z,984.82
2019-02-11T00:35:09.511Z,984.81
2019-02-11T00:36:09.506Z,984.83
2019-02-11T00:37:09.493Z,984.84
2019-02-11T00:38:09.530Z,984.87
2019-02-11T00:39:09.497Z,984.87
2019-02-11T00:40:09.466Z,984.93
2019-02-11T00:41:09.452Z,984.95
2019-02-11T00:42:09.450Z,984.95
2019-02-11T00:43:09.453Z,985.03
2019-02-11T00:44:09.441Z,985.00
2019-02-11T00:45:09.412Z,984.92
2019-02-11T00:46:09.388Z,985.06
2019-02-11T00:47:09.387Z,985.08
2019-02-11T00:48:09.378Z,985.09
2019-02-11T00:49:09.385Z,985.07
2019-02-11T00:50:09.373Z,985.12
2019-02-11T00:51:09.347Z,985.08
2019-02-11T00:52:09.340Z,985.16
2019-02-11T00:53:09.332Z,985.21
2019-02-11T00:54:09.335Z,985.18
2019-02-11T00:55:09.296Z,985.27
2019-02-11T00:56:09.283Z,985.34
2019-02-11T00:57:09.274Z,985.23
2019-02-11T00:58:09.268Z,985.29
2019-02-11T00:59:09.279Z,985.23
2019-02-11T01:00:09.321Z,985.21
2019-02-11T01:01:09.232Z,985.31
2019-02-11T01:02:09.224Z,985.27
2019-02-11T01:03:09.211Z,985.28
2019-02-11T01:04:09.206Z,985.34
2019-02-11T01:05:09.206Z,985.35
2019-02-11T01:06:09.199Z,985.39
2019-02-11T01:07:09.162Z,985.48
2019-02-11T01:08:09.147Z,985.45
2019-02-11T01:09:09.145Z,985.44
2019-02-11T01:10:09.143Z,985.47
2019-02-11T01:11:09.149Z,985.50
2019-02-11T01:12:09.115Z,985.47
2019-02-11T01:13:09.103Z,985.51
2019-02-11T01:14:09.115Z,985.49
2019-02-11T01:15:09.077Z,985.55
2019-02-11T01:16:09.091Z,985.55
2019-02-11T01:17:09.058Z,985.60
2019-02-11T01:18:09.053Z,985.64
2019-02-11T01:19:09.046Z,985.61
2019-02-11T01:20:09.020Z,985.65
2019-02-11T01:21:09.043Z,985.68
2019-02-11T01:22:09.002Z,985.75
2019-02-11T01:23:08.994Z,985.72
2019-02-11T01:24:08.987Z,985.73
2019-02-11T01:25:08.969Z,985.76
2019-02-11T01:26:08.965Z,985.77
2019-02-11T01:27:08.971Z,985.76
2019-02-11T01:28:08.969Z,985.78
2019-02-11T01:29:08.928Z,985.75
2019-02-11T01:30:08.921Z,985.85
2019-02-11T01:31:08.906Z,985.86
2019-02-11T01:32:08.891Z,985.81
2019-02-11T01:33:08.884Z,985.88
2019-02-11T01:34:08.893Z,985.91
2019-02-11T01:35:08.875Z,985.91
2019-02-11T01:36:08.857Z,985.96
2019-02-11T01:37:08.849Z,986.01
2019-02-11T01:38:08.831Z,985.99
2019-02-11T01:39:08.835Z,986.08
2019-02-11T01:40:08.799Z,986.05
2019-02-11T01:41:08.801Z,986.10
2019-02-11T01:42:08.790Z,986.15
2019-02-11T01:43:08.767Z,986.18
2019-02-11T01:44:08.791Z,986.30
2019-02-11T01:45:08.747Z,986.23
2019-02-11T01:46:08.737Z,986.24
2019-02-11T01:47:08.739Z,986.31
2019-02-11T01:48:08.733Z,986.25
2019-02-11T01:49:08.709Z,986.32
2019-02-11T01:50:08.726Z,986.27
2019-02-11T01:51:08.683Z,986.31
2019-02-11T01:52:08.675Z,986.35
2019-02-11T01:53:08.666Z,986.28
2019-02-11T01:54:08.671Z,986.35
2019-02-11T01:55:08.652Z,986.40
2019-02-11T01:56:08.676Z,986.41
2019-02-11T01:57:08.620Z,986.43
2019-02-11T01:58:08.612Z,986.51
2019-02-11T01:59:08.603Z,986.43
2019-02-11T02:00:08.595Z,986.50
2019-02-11T02:01:08.585Z,986.50
2019-02-11T02:02:08.593Z,986.55
2019-02-11T02:03:08.552Z,986.50
2019-02-11T02:04:08.542Z,986.56
2019-02-11T02:05:08.523Z,986.57
2019-02-11T02:06:08.561Z,986.54
2019-02-11T02:07:08.515Z,986.56
2019-02-11T02:08:08.502Z,986.58
2019-02-11T02:09:08.499Z,986.55
2019-02-11T02:10:08.490Z,986.52
2019-02-11T02:11:08.462Z,986.64
2019-02-11T02:12:08.479Z,986.57
2019-02-11T02:13:08.452Z,986.57
2019-02-11T02:14:08.442Z,986.69
2019-02-11T02:15:08.454Z,986.56
2019-02-11T02:16:08.414Z,986.68
2019-02-11T02:17:08.419Z,986.65
2019-02-11T02:18:08.422Z,986.73
2019-02-11T02:19:08.385Z,986.74
2019-02-11T02:20:08.375Z,986.71
2019-02-11T02:21:08.377Z,986.80
2019-02-11T02:22:08.351Z,986.78
2019-02-11T02:23:08.342Z,986.77
2019-02-11T02:24:08.338Z,986.82
2019-02-11T02:25:08.368Z,986.91
2019-02-11T02:26:08.306Z,986.89
2019-02-11T02:27:08.339Z,986.92
2019-02-11T02:28:08.289Z,986.94
2019-02-11T02:29:08.272Z,986.92
2019-02-11T02:30:08.268Z,987.08
2019-02-11T02:31:08.253Z,987.07
2019-02-11T02:32:08.251Z,987.09
2019-02-11T02:33:08.283Z,987.14
2019-02-11T02:34:08.217Z,987.06
2019-02-11T02:35:08.197Z,987.20
2019-02-11T02:36:08.190Z,987.16
2019-02-11T02:37:08.186Z,987.23
2019-02-11T02:38:08.170Z,987.27
2019-02-11T02:39:08.191Z,987.38
2019-02-11T02:40:08.155Z,987.37
2019-02-11T02:41:08.162Z,987.36
2019-02-11T02:42:08.133Z,987.34
2019-02-11T02:43:08.126Z,987.44
2019-02-11T02:44:08.134Z,987.43
2019-02-11T02:45:08.109Z,987.46
2019-02-11T02:46:08.091Z,987.42
2019-02-11T02:47:08.070Z,987.48
2019-02-11T02:48:08.058Z,987.56
2019-02-11T02:49:08.070Z,987.58
2019-02-11T02:50:08.062Z,987.55
2019-02-11T02:51:08.050Z,987.59
2019-02-11T02:52:08.030Z,987.67
2019-02-11T02:53:08.028Z,987.70
2019-02-11T02:54:08.004Z,987.75
2019-02-11T02:55:08.003Z,987.74
2019-02-11T02:56:07.976Z,987.76
2019-02-11T02:57:07.966Z,987.83
2019-02-11T02:58:07.968Z,987.89
2019-02-11T02:59:07.948Z,987.91
2019-02-11T03:00:07.969Z,987.99
2019-02-11T03:01:07.916Z,987.97
2019-02-11T03:02:07.914Z,988.07
2019-02-11T03:03:07.901Z,988.10
2019-02-11T03:04:07.906Z,988.12
2019-02-11T03:05:07.907Z,988.12
2019-02-11T03:06:07.879Z,988.10
2019-02-11T03:07:07.854Z,988.18
2019-02-11T03:08:07.853Z,988.23
2019-02-11T03:09:07.832Z,988.22
2019-02-11T03:10:07.867Z,988.27
2019-02-11T03:11:07.822Z,988.32
2019-02-11T03:12:07.810Z,988.33
2019-02-11T03:13:09.904Z,988.33
2019-02-11T03:14:07.788Z,988.37
2019-02-11T03:15:07.766Z,988.40
2019-02-11T03:16:07.774Z,988.44
2019-02-11T03:17:07.750Z,988.44
2019-02-11T03:18:07.755Z,988.50
2019-02-11T03:19:07.724Z,988.53
2019-02-11T03:20:07.708Z,988.57
2019-02-11T03:21:07.738Z,988.63
2019-02-11T03:22:07.694Z,988.63
2019-02-11T03:23:07.690Z,988.65
2019-02-11T03:24:07.689Z,988.73
2019-02-11T03:25:07.719Z,988.73
2019-02-11T03:26:07.662Z,988.73
2019-02-11T03:27:07.657Z,988.80
2019-02-11T03:28:07.627Z,988.88
2019-02-11T03:29:07.627Z,988.88
2019-02-11T03:30:07.641Z,988.96
2019-02-11T03:31:07.617Z,989.03
2019-02-11T03:32:07.598Z,989.06
2019-02-11T03:33:07.616Z,989.06
2019-02-11T03:34:07.562Z,989.09
2019-02-11T03:35:07.564Z,989.13
2019-02-11T03:36:07.548Z,989.24
2019-02-11T03:37:07.552Z,989.19
2019-02-11T03:38:07.562Z,989.23
2019-02-11T03:39:07.502Z,989.26
2019-02-11T03:40:07.496Z,989.29
2019-02-11T03:41:07.485Z,989.35
2019-02-11T03:42:07.475Z,989.36
2019-02-11T03:43:07.468Z,989.36
2019-02-11T03:44:14.782Z,989.38
2019-02-11T03:45:08.446Z,989.47
2019-02-11T03:46:07.439Z,989.47
2019-02-11T03:47:07.435Z,989.49
2019-02-11T03:48:07.428Z,989.58
2019-02-11T03:49:07.424Z,989.50
2019-02-11T03:50:07.396Z,989.59
2019-02-11T03:51:07.391Z,989.67
2019-02-11T03:52:07.373Z,989.68
2019-02-11T03:53:07.350Z,989.70
2019-02-11T03:54:07.347Z,989.79
2019-02-11T03:55:07.347Z,989.78
2019-02-11T03:56:07.364Z,989.79
2019-02-11T03:57:07.315Z,989.83
2019-02-11T03:58:07.311Z,989.86
2019-02-11T03:59:07.291Z,989.82
2019-02-11T04:00:07.290Z,989.94
2019-02-11T04:01:07.277Z,989.90
2019-02-11T04:02:07.280Z,989.93
2019-02-11T04:03:07.277Z,989.93
2019-02-11T04:04:07.244Z,990.00
2019-02-11T04:05:07.222Z,990.11
2019-02-11T04:06:07.213Z,990.07
2019-02-11T04:07:07.214Z,990.05
2019-02-11T04:08:07.218Z,990.13
2019-02-11T04:09:07.199Z,990.19
2019-02-11T04:10:07.175Z,990.28
2019-02-11T04:11:07.166Z,990.27
2019-02-11T04:12:07.210Z,990.29
2019-02-11T04:13:07.167Z,990.39
2019-02-11T04:14:07.123Z,990.45
2019-02-11T04:15:07.125Z,990.41
2019-02-11T04:16:07.112Z,990.39
2019-02-11T04:17:07.103Z,990.45
2019-02-11T04:18:07.095Z,990.53
2019-02-11T04:19:07.101Z,990.58
2019-02-11T04:20:07.061Z,990.49
2019-02-11T04:21:07.064Z,990.51
2019-02-11T04:22:07.057Z,990.67
2019-02-11T04:23:07.060Z,990.62
2019-02-11T04:24:07.018Z,990.69
2019-02-11T04:25:07.025Z,990.75
2019-02-11T04:26:06.992Z,990.70
2019-02-11T04:27:07.015Z,990.68
2019-02-11T04:28:06.984Z,990.75
2019-02-11T04:29:06.973Z,990.77
2019-02-11T04:30:06.986Z,990.81
2019-02-11T04:31:06.938Z,990.79
2019-02-11T04:32:06.929Z,990.81
2019-02-11T04:33:06.923Z,990.88
2019-02-11T04:34:06.913Z,990.85
2019-02-11T04:35:06.916Z,990.89
2019-02-11T04:36:06.913Z,991.00
2019-02-11T04:37:06.878Z,990.99
2019-02-11T04:38:06.859Z,990.95
2019-02-11T04:39:06.867Z,991.05
2019-02-11T04:40:06.873Z,991.01
2019-02-11T04:41:06.838Z,991.08
2019-02-11T04:42:06.826Z,991.04
2019-02-11T04:43:06.813Z,991.06
2019-02-11T04:44:06.820Z,991.10
2019-02-11T04:45:06.887Z,991.00
2019-02-11T04:46:06.786Z,991.11
2019-02-11T04:47:06.782Z,991.26
2019-02-11T04:48:06.774Z,991.28
2019-02-11T04:49:06.755Z,991.27
2019-02-11T04:50:06.745Z,991.31
2019-02-11T04:51:06.739Z,991.33
2019-02-11T04:52:06.711Z,991.38
2019-02-11T04:53:06.717Z,991.43
2019-02-11T04:54:06.702Z,991.38
2019-02-11T04:55:06.731Z,991.37
2019-02-11T04:56:06.702Z,991.41
2019-02-11T04:57:06.657Z,991.47
2019-02-11T04:58:06.654Z,991.53
2019-02-11T04:59:06.658Z,991.43
2019-02-11T05:00:06.640Z,991.60
2019-02-11T05:01:06.666Z,991.69
2019-02-11T05:02:06.612Z,991.61
2019-02-11T05:03:06.594Z,991.69
2019-02-11T05:04:06.596Z,991.56
2019-02-11T05:05:06.568Z,991.75
2019-02-11T05:06:06.566Z,991.77
2019-02-11T05:07:06.616Z,991.81
2019-02-11T05:08:06.548Z,991.74
2019-02-11T05:09:06.532Z,991.89
2019-02-11T05:10:06.523Z,991.81
2019-02-11T05:11:06.515Z,991.85
2019-02-11T05:12:06.510Z,991.83
2019-02-11T05:13:06.931Z,991.84
2019-02-11T05:14:06.488Z,991.90
2019-02-11T05:15:06.462Z,991.93
2019-02-11T05:16:06.461Z,991.96
2019-02-11T05:17:06.450Z,992.01
2019-02-11T05:18:06.462Z,992.01
2019-02-11T05:19:06.426Z,992.05
2019-02-11T05:20:06.424Z,992.03
2019-02-11T05:21:06.401Z,992.01
2019-02-11T05:22:06.405Z,992.02
2019-02-11T05:23:06.383Z,992.01
2019-02-11T05:24:06.393Z,992.14
2019-02-11T05:25:06.368Z,992.11
2019-02-11T05:26:06.350Z,992.16
2019-02-11T05:27:06.338Z,992.16
2019-02-11T05:28:06.315Z,992.18
2019-02-11T05:29:06.317Z,992.23
2019-02-11T05:30:06.329Z,992.30
2019-02-11T05:31:06.300Z,992.24
2019-02-11T05:32:06.308Z,992.25
2019-02-11T05:33:06.296Z,992.30
2019-02-11T05:34:06.290Z,992.36
2019-02-11T05:35:06.240Z,992.33
2019-02-11T05:36:06.320Z,992.37
2019-02-11T05:37:06.225Z,992.45
2019-02-11T05:38:06.215Z,992.51
2019-02-11T05:39:06.219Z,992.45
2019-02-11T05:40:06.222Z,992.41
2019-02-11T05:41:06.201Z,992.55
2019-02-11T05:42:06.168Z,992.50
2019-02-11T05:43:06.170Z,992.54
2019-02-11T05:44:06.163Z,992.58
2019-02-11T05:45:06.172Z,992.65
2019-02-11T05:46:06.136Z,992.66
2019-02-11T05:47:06.121Z,992.66
2019-02-11T05:48:06.106Z,992.72
2019-02-11T05:49:06.117Z,992.76
2019-02-11T05:50:06.087Z,992.79
2019-02-11T05:51:06.095Z,992.83
2019-02-11T05:52:06.065Z,992.77
2019-02-11T05:53:06.054Z,992.80
2019-02-11T05:54:06.044Z,992.83
2019-02-11T05:55:06.049Z,992.76
2019-02-11T05:56:06.061Z,992.80
2019-02-11T05:57:06.026Z,992.83
2019-02-11T05:58:06.006Z,992.91
2019-02-11T05:59:05.983Z,992.93
2019-02-11T06:00:05.978Z,992.93
2019-02-11T06:01:05.979Z,993.01
2019-02-11T06:02:05.965Z,993.00
2019-02-11T06:03:05.960Z,992.89
2019-02-11T06:04:05.946Z,992.99
2019-02-11T06:05:05.925Z,993.10
2019-02-11T06:06:05.921Z,993.05
2019-02-11T06:07:05.919Z,993.17
2019-02-11T06:08:05.893Z,993.15
2019-02-11T06:09:05.872Z,993.17
2019-02-11T06:10:05.871Z,993.23
2019-02-11T06:11:05.859Z,993.23
2019-02-11T06:12:05.867Z,993.15
2019-02-11T06:13:05.828Z,993.23
2019-02-11T06:14:05.837Z,993.23
2019-02-11T06:15:05.819Z,993.24
2019-02-11T06:16:05.827Z,993.29
2019-02-11T06:17:05.819Z,993.35
2019-02-11T06:18:05.793Z,993.34
2019-02-11T06:19:05.770Z,993.34
2019-02-11T06:20:05.769Z,993.37
2019-02-11T06:21:05.739Z,993.41
2019-02-11T06:22:05.752Z,993.42
2019-02-11T06:23:05.725Z,993.45
2019-02-11T06:24:05.715Z,993.50
2019-02-11T06:25:05.708Z,993.48
2019-02-11T06:26:05.766Z,993.56
2019-02-11T06:27:05.738Z,993.55
2019-02-11T06:28:05.661Z,993.63
2019-02-11T06:29:05.674Z,993.60
2019-02-11T06:30:05.667Z,993.65
2019-02-11T06:31:05.637Z,993.64
2019-02-11T06:32:05.644Z,993.70
2019-02-11T06:33:05.619Z,993.70
2019-02-11T06:34:05.597Z,993.72
2019-02-11T06:35:05.609Z,993.74
2019-02-11T06:36:12.003Z,993.77
2019-02-11T06:37:06.609Z,993.77
2019-02-11T06:38:05.566Z,993.86
2019-02-11T06:39:05.567Z,993.79
2019-02-11T06:40:05.536Z,993.80
2019-02-11T06:41:05.530Z,993.82
2019-02-11T06:42:05.512Z,993.83
2019-02-11T06:43:05.518Z,993.92
2019-02-11T06:44:05.531Z,993.91
2019-02-11T06:45:12.740Z,993.91
2019-02-11T06:46:06.464Z,993.92
2019-02-11T06:47:05.519Z,993.96
2019-02-11T06:48:05.458Z,993.93
2019-02-11T06:49:05.453Z,993.93
2019-02-11T06:50:05.468Z,994.06
2019-02-11T06:51:05.412Z,994.09
2019-02-11T06:52:05.422Z,994.13
2019-02-11T06:53:05.396Z,994.17
2019-02-11T06:54:05.423Z,994.15
2019-02-11T06:55:05.406Z,994.22
2019-02-11T06:56:05.364Z,994.20
2019-02-11T06:57:05.354Z,994.22
2019-02-11T06:58:05.353Z,994.31
2019-02-11T06:59:05.330Z,994.30
2019-02-11T07:00:05.332Z,994.43
2019-02-11T07:01:05.313Z,994.30
2019-02-11T07:02:05.303Z,994.45
2019-02-11T07:03:05.284Z,994.46
2019-02-11T07:04:05.296Z,994.42
2019-02-11T07:05:05.293Z,994.43
2019-02-11T07:06:05.271Z,994.52
2019-02-11T07:07:05.265Z,994.51
2019-02-11T07:08:05.247Z,994.51
2019-02-11T07:09:05.273Z,994.58
2019-02-11T07:10:05.245Z,994.61
2019-02-11T07:11:05.195Z,994.61
2019-02-11T07:12:05.181Z,994.69
2019-02-11T07:13:05.178Z,994.65
2019-02-11T07:14:05.160Z,994.69
2019-02-11T07:15:05.163Z,994.62
2019-02-11T07:16:05.175Z,994.70
2019-02-11T07:17:05.146Z,994.79
2019-02-11T07:18:05.120Z,994.82
2019-02-11T07:19:05.122Z,994.76
2019-02-11T07:20:05.102Z,994.82
2019-02-11T07:21:05.115Z,994.80
2019-02-11T07:22:05.122Z,994.88
2019-02-11T07:23:05.067Z,994.92
2019-02-11T07:24:05.055Z,994.91
2019-02-11T07:25:05.043Z,994.95
2019-02-11T07:26:05.074Z,994.87
2019-02-11T07:27:05.038Z,994.93
2019-02-11T07:28:05.052Z,995.00
2019-02-11T07:29:05.028Z,994.97
2019-02-11T07:30:04.997Z,995.05
2019-02-11T07:31:04.997Z,995.03
2019-02-11T07:32:04.991Z,995.09
2019-02-11T07:33:04.973Z,995.11
2019-02-11T07:34:04.956Z,995.10
2019-02-11T07:35:04.944Z,995.23
2019-02-11T07:36:04.926Z,995.15
2019-02-11T07:37:04.929Z,995.19
2019-02-11T07:38:04.902Z,995.17
2019-02-11T07:39:04.911Z,995.31
2019-02-11T07:40:04.885Z,995.33
2019-02-11T07:41:04.895Z,995.40
2019-02-11T07:42:04.884Z,995.41
2019-02-11T07:43:04.864Z,995.42
2019-02-11T07:44:04.846Z,995.39
2019-02-11T07:45:04.825Z,995.44
2019-02-11T07:46:04.825Z,995.47
2019-02-11T07:47:04.821Z,995.39
2019-02-11T07:48:04.839Z,995.52
2019-02-11T07:49:04.813Z,995.54
2019-02-11T07:50:04.812Z,995.56
2019-02-11T07:51:04.775Z,995.56
2019-02-11T07:52:04.769Z,995.59
2019-02-11T07:53:04.743Z,995.66
2019-02-11T07:54:04.754Z,995.66
2019-02-11T07:55:04.720Z,995.67
2019-02-11T07:56:04.717Z,995.53
2019-02-11T07:57:04.703Z,995.64
2019-02-11T07:58:04.692Z,995.70
2019-02-11T07:59:04.708Z,995.74
2019-02-11T08:00:04.682Z,995.73
2019-02-11T08:01:04.656Z,995.73
2019-02-11T08:02:04.716Z,995.85
2019-02-11T08:03:04.634Z,995.84
2019-02-11T08:04:04.614Z,995.84
2019-02-11T08:05:04.650Z,995.80
2019-02-11T08:06:04.606Z,995.83
2019-02-11T08:07:04.584Z,995.86
2019-02-11T08:08:04.570Z,995.84
2019-02-11T08:09:04.572Z,995.83
2019-02-11T08:10:04.553Z,995.78
2019-02-11T08:11:04.579Z,995.82
2019-02-11T08:12:04.548Z,995.85
2019-02-11T08:13:04.534Z,995.80
2019-02-11T08:14:04.521Z,995.79
2019-02-11T08:15:04.505Z,995.78
2019-02-11T08:16:04.521Z,995.89
2019-02-11T08:17:04.473Z,995.91
2019-02-11T08:18:04.463Z,995.89
2019-02-11T08:19:04.459Z,995.90
2019-02-11T08:20:04.459Z,995.90
2019-02-11T08:21:04.442Z,995.96
2019-02-11T08:22:04.445Z,995.86
2019-02-11T08:23:11.818Z,995.89
2019-02-11T08:24:05.412Z,996.00
2019-02-11T08:25:04.408Z,995.99
2019-02-11T08:26:06.132Z,996.01
2019-02-11T08:27:04.381Z,996.06
2019-02-11T08:28:04.361Z,996.10
2019-02-11T08:29:04.353Z,996.07
2019-02-11T08:30:04.347Z,996.07
2019-02-11T08:31:04.392Z,996.06
2019-02-11T08:32:04.345Z,996.11
2019-02-11T08:33:04.330Z,996.18
2019-02-11T08:34:04.296Z,996.20
2019-02-11T08:35:04.278Z,996.21
2019-02-11T08:36:04.279Z,996.20
2019-02-11T08:37:04.283Z,996.19
2019-02-11T08:38:04.255Z,996.34
2019-02-11T08:39:04.905Z,996.39
2019-02-11T08:40:04.227Z,996.36
2019-02-11T08:41:04.213Z,996.41
2019-02-11T08:42:04.241Z,996.51
2019-02-11T08:43:04.219Z,996.47
2019-02-11T08:44:04.191Z,996.57
2019-02-11T08:45:04.178Z,996.54
2019-02-11T08:46:04.166Z,996.55
2019-02-11T08:47:04.151Z,996.61
2019-02-11T08:48:04.153Z,996.73
2019-02-11T08:49:04.120Z,996.65
2019-02-11T08:50:04.119Z,996.66
2019-02-11T08:51:04.114Z,996.73
2019-02-11T08:52:04.113Z,996.76
2019-02-11T08:53:04.103Z,996.75
2019-02-11T08:54:04.081Z,996.78
2019-02-11T08:55:04.075Z,996.85
2019-02-11T08:56:04.066Z,996.74
2019-02-11T08:57:04.044Z,996.81
2019-02-11T08:58:04.038Z,996.86
2019-02-11T08:59:04.045Z,996.95
2019-02-11T09:00:03.998Z,996.89
2019-02-11T09:01:03.997Z,996.77
2019-02-11T09:02:03.980Z,997.05
2019-02-11T09:03:03.983Z,997.01
2019-02-11T09:04:03.974Z,997.05
2019-02-11T09:05:03.975Z,997.10
2019-02-11T09:06:03.945Z,997.15
2019-02-11T09:07:03.937Z,997.10
2019-02-11T09:08:03.918Z,997.14
2019-02-11T09:09:03.913Z,997.17
2019-02-11T09:10:03.937Z,997.21
2019-02-11T09:11:03.905Z,997.21
2019-02-11T09:12:03.876Z,997.20
2019-02-11T09:13:03.874Z,997.22
2019-02-11T09:14:03.853Z,997.24
2019-02-11T09:15:03.857Z,997.28
2019-02-11T09:16:03.862Z,997.24
2019-02-11T09:17:10.005Z,997.32
2019-02-11T09:18:04.836Z,997.32
2019-02-11T09:19:03.805Z,997.42
2019-02-11T09:20:03.786Z,997.39
2019-02-11T09:21:03.808Z,997.33
2019-02-11T09:22:07.642Z,997.45
2019-02-11T09:23:03.765Z,997.42
2019-02-11T09:24:03.762Z,997.41
2019-02-11T09:25:03.731Z,997.45
2019-02-11T09:26:03.764Z,997.52
2019-02-11T09:27:03.724Z,997.52
2019-02-11T09:28:03.726Z,997.59
2019-02-11T09:29:03.705Z,997.65
2019-02-11T09:30:03.699Z,997.64
2019-02-11T09:31:03.708Z,997.55
2019-02-11T09:32:03.663Z,997.68
2019-02-11T09:33:03.655Z,997.76
2019-02-11T09:34:03.645Z,997.65
2019-02-11T09:35:03.642Z,997.78
2019-02-11T09:36:03.635Z,997.77
2019-02-11T09:37:03.638Z,997.82
2019-02-11T09:38:03.609Z,997.82
2019-02-11T09:39:03.577Z,997.85
2019-02-11T09:40:03.576Z,997.85
2019-02-11T09:41:03.573Z,997.87
2019-02-11T09:42:03.584Z,997.90
2019-02-11T09:43:03.531Z,997.85
2019-02-11T09:44:03.528Z,997.86
2019-02-11T09:45:03.516Z,997.95
2019-02-11T09:46:04.426Z,997.96
2019-02-11T09:47:03.499Z,997.96
2019-02-11T09:48:03.510Z,998.03
2019-02-11T09:49:03.480Z,998.00
2019-02-11T09:50:03.479Z,997.99
2019-02-11T09:51:03.460Z,998.07
2019-02-11T09:52:03.439Z,998.05
2019-02-11T09:53:03.444Z,998.16
2019-02-11T09:54:03.443Z,998.10
2019-02-11T09:55:03.414Z,998.14
2019-02-11T09:56:03.461Z,998.15
2019-02-11T09:57:03.385Z,998.06
2019-02-11T09:58:03.401Z,998.09
2019-02-11T09:59:03.393Z,998.14
2019-02-11T10:00:03.381Z,998.12
2019-02-11T10:01:03.343Z,998.24
2019-02-11T10:02:03.340Z,998.22
2019-02-11T10:03:03.347Z,998.29
2019-02-11T10:04:03.348Z,998.28
2019-02-11T10:05:03.309Z,998.28
2019-02-11T10:06:03.288Z,998.24
2019-02-11T10:07:03.297Z,998.27
2019-02-11T10:08:03.273Z,998.38
2019-02-11T10:09:03.284Z,998.36
2019-02-11T10:10:03.253Z,998.47
2019-02-11T10:11:03.235Z,998.36
2019-02-11T10:12:03.219Z,998.45
2019-02-11T10:13:03.218Z,998.42
2019-02-11T10:14:03.220Z,998.48
2019-02-11T10:15:03.220Z,998.53
2019-02-11T10:16:03.175Z,998.46
2019-02-11T10:17:03.237Z,998.56
2019-02-11T10:18:03.160Z,998.46
2019-02-11T10:19:03.173Z,998.47
2019-02-11T10:20:03.147Z,998.57
2019-02-11T10:21:03.133Z,998.44
2019-02-11T10:22:03.123Z,998.54
2019-02-11T10:23:03.109Z,998.62
2019-02-11T10:24:03.085Z,998.65
2019-02-11T10:25:03.098Z,998.62
2019-02-11T10:26:03.074Z,998.71
2019-02-11T10:27:03.063Z,998.79
2019-02-11T10:28:03.065Z,998.69
2019-02-11T10:29:03.038Z,998.71
2019-02-11T10:30:03.038Z,998.70
2019-02-11T10:31:03.020Z,998.82
2019-02-11T10:32:03.012Z,998.85
2019-02-11T10:33:02.994Z,998.80
2019-02-11T10:34:03.007Z,998.73
2019-02-11T10:35:03.018Z,998.85
2019-02-11T10:36:02.962Z,998.83
2019-02-11T10:37:02.945Z,998.90
2019-02-11T10:38:02.946Z,998.76
2019-02-11T10:39:02.930Z,998.91
2019-02-11T10:40:02.927Z,998.71
2019-02-11T10:41:02.940Z,998.87
2019-02-11T10:42:02.898Z,998.92
2019-02-11T10:43:02.876Z,998.90
2019-02-11T10:44:02.875Z,998.93
2019-02-11T10:45:02.887Z,998.94
2019-02-11T10:46:02.888Z,998.95
2019-02-11T10:47:02.839Z,998.95
2019-02-11T10:48:02.826Z,998.94
2019-02-11T10:49:02.820Z,998.98
2019-02-11T10:50:02.798Z,999.04
2019-02-11T10:51:02.803Z,998.97
2019-02-11T10:52:02.823Z,998.99
2019-02-11T10:53:02.775Z,999.07
2019-02-11T10:54:02.781Z,999.06
2019-02-11T10:55:02.749Z,999.09
2019-02-11T10:56:02.734Z,999.01
2019-02-11T10:57:02.755Z,999.05
2019-02-11T10:58:02.708Z,999.06
2019-02-11T10:59:02.713Z,999.08
2019-02-11T11:00:02.703Z,999.10
2019-02-11T11:01:02.689Z,999.08
2019-02-11T11:02:02.689Z,999.13
2019-02-11T11:03:02.670Z,999.13
2019-02-11T11:04:02.651Z,999.17
2019-02-11T11:05:02.650Z,999.17
2019-02-11T11:06:02.643Z,999.24
2019-02-11T11:07:02.637Z,999.22
2019-02-11T11:08:02.659Z,999.30
2019-02-11T11:09:02.593Z,999.23
2019-02-11T11:10:02.588Z,999.26
2019-02-11T11:11:02.581Z,999.35
2019-02-11T11:12:02.606Z,999.32
2019-02-11T11:13:02.612Z,999.42
2019-02-11T11:14:02.552Z,999.41
2019-02-11T11:15:02.522Z,999.36
2019-02-11T11:16:02.517Z,999.37
2019-02-11T11:17:02.516Z,999.46
2019-02-11T11:18:02.531Z,999.60
2019-02-11T11:19:02.479Z,999.56
2019-02-11T11:20:02.499Z,999.52
2019-02-11T11:21:02.464Z,999.60
2019-02-11T11:22:02.455Z,999.62
2019-02-11T11:23:02.443Z,999.61
2019-02-11T11:24:02.445Z,999.63
2019-02-11T11:25:02.421Z,999.57
2019-02-11T11:26:02.457Z,999.69
2019-02-11T11:27:02.392Z,999.69
2019-02-11T11:28:02.379Z,999.63
2019-02-11T11:29:02.404Z,999.60
2019-02-11T11:30:02.357Z,999.66
2019-02-11T11:31:02.360Z,999.59
2019-02-11T11:32:02.360Z,999.70
2019-02-11T11:33:02.333Z,999.64
2019-02-11T11:34:02.340Z,999.69
2019-02-11T11:35:02.319Z,999.75
2019-02-11T11:36:02.306Z,999.76
2019-02-11T11:37:02.294Z,999.73
2019-02-11T11:38:02.306Z,999.72
2019-02-11T11:39:02.280Z,999.75
2019-02-11T11:40:02.275Z,999.78
2019-02-11T11:41:02.245Z,999.73
2019-02-11T11:42:02.227Z,999.74
2019-02-11T11:43:02.245Z,999.78
2019-02-11T11:44:02.213Z,999.83
2019-02-11T11:45:02.235Z,999.86
2019-02-11T11:46:02.190Z,999.76
2019-02-11T11:47:02.187Z,999.84
2019-02-11T11:48:02.200Z,999.80
2019-02-11T11:49:02.165Z,999.89
2019-02-11T11:50:02.145Z,999.80
2019-02-11T11:51:02.131Z,999.79
2019-02-11T11:52:02.120Z,999.88
2019-02-11T11:53:02.124Z,999.89
2019-02-11T11:54:02.097Z,999.98
2019-02-11T11:55:02.093Z,999.97
2019-02-11T11:56:02.561Z,1000.00
2019-02-11T11:57:02.075Z,999.97
2019-02-11T11:58:02.112Z,1000.03
2019-02-11T11:59:02.043Z,1000.00
2019-02-11T12:00:02.034Z,1000.03
2019-02-11T12:01:02.037Z,1000.11
2019-02-11T12:02:02.026Z,1000.03
2019-02-11T12:03:04.761Z,1000.16
2019-02-11T12:04:03.966Z,1000.17
2019-02-11T12:05:01.996Z,1000.09
2019-02-11T12:06:02.025Z,1000.08
2019-02-11T12:07:01.958Z,1000.10
2019-02-11T12:08:02.003Z,1000.17
2019-02-11T12:09:01.954Z,1000.19
2019-02-11T12:10:01.948Z,1000.23
2019-02-11T12:11:01.908Z,1000.23
2019-02-11T12:12:01.898Z,1000.20
2019-02-11T12:13:20.478Z,1000.26
2019-02-11T12:14:02.881Z,1000.26
2019-02-11T12:15:01.959Z,1000.37
2019-02-11T12:16:01.874Z,1000.29
2019-02-11T12:17:02.975Z,1000.32
2019-02-11T12:18:01.855Z,1000.44
2019-02-11T12:19:01.855Z,1000.45
2019-02-11T12:20:01.863Z,1000.39
2019-02-11T12:21:01.823Z,1000.43
2019-02-11T12:22:01.793Z,1000.49
2019-02-11T12:23:01.814Z,1000.48
2019-02-11T12:24:01.795Z,1000.55
2019-02-11T12:25:01.783Z,1000.59
2019-02-11T12:26:01.739Z,1000.55
2019-02-11T12:27:01.753Z,1000.67